createdAt,value
2018-07-03T00:01:17.295Z,50.46
2018-07-03T00:03:47.098Z,49.85
2018-07-03T00:06:16.577Z,50.50
2018-07-03T00:08:46.083Z,50.58
2018-07-03T00:13:44.011Z,51.72
2018-07-03T00:16:17.457Z,52.38
2018-07-03T00:18:47.047Z,51.99
2018-07-03T00:21:16.330Z,52.51
2018-07-03T00:23:46.575Z,52.96
2018-07-03T00:26:15.852Z,53.62
2018-07-03T00:28:45.122Z,53.89
2018-07-03T00:31:14.469Z,53.28
2018-07-03T00:33:43.788Z,54.55
2018-07-03T00:36:13.192Z,54.40
2018-07-03T00:38:42.522Z,54.58
2018-07-03T00:41:11.849Z,54.71
2018-07-03T00:43:41.189Z,55.32
2018-07-03T00:46:10.586Z,56.03
2018-07-03T00:48:40.008Z,56.38
2018-07-03T00:51:09.359Z,56.40
2018-07-03T00:53:38.748Z,57.18
2018-07-03T00:56:08.097Z,56.83
2018-07-03T00:58:37.398Z,57.16
2018-07-03T01:01:06.799Z,58.01
2018-07-03T01:03:36.075Z,57.60
2018-07-03T01:06:05.327Z,58.28
2018-07-03T01:08:34.707Z,58.98
2018-07-03T01:11:03.991Z,58.59
2018-07-03T01:13:33.274Z,58.48
2018-07-03T01:16:02.640Z,59.09
2018-07-03T01:18:31.920Z,58.76
2018-07-03T01:21:01.192Z,59.16
2018-07-03T01:23:30.498Z,59.46
2018-07-03T01:25:59.758Z,59.41
2018-07-03T01:28:29.015Z,60.00
2018-07-03T01:30:58.409Z,59.62
2018-07-03T01:33:27.800Z,59.84
2018-07-03T01:35:57.117Z,60.25
2018-07-03T01:38:26.524Z,59.98
2018-07-03T01:40:55.800Z,60.03
2018-07-03T01:43:25.088Z,59.88
2018-07-03T01:45:54.425Z,60.17
2018-07-03T01:48:23.707Z,60.47
2018-07-03T01:50:53.012Z,60.37
2018-07-03T01:53:22.401Z,60.65
2018-07-03T01:55:51.727Z,60.77
2018-07-03T01:58:21.332Z,61.65
2018-07-03T02:00:50.716Z,61.66
2018-07-03T02:03:20.071Z,61.68
2018-07-03T02:05:49.342Z,62.24
2018-07-03T02:08:18.693Z,62.40
2018-07-03T02:10:48.115Z,62.81
2018-07-03T02:13:17.537Z,62.49
2018-07-03T02:15:47.081Z,62.51
2018-07-03T02:18:16.374Z,62.77
2018-07-03T02:20:45.736Z,63.13
2018-07-03T02:23:15.071Z,63.17
2018-07-03T02:25:44.363Z,63.17
2018-07-03T02:28:13.662Z,62.92
2018-07-03T02:30:43.023Z,63.26
2018-07-03T02:33:12.322Z,62.92
2018-07-03T02:35:41.596Z,62.73
2018-07-03T02:38:11.022Z,62.86
2018-07-03T02:40:40.093Z,63.53
2018-07-03T02:43:09.505Z,64.23
2018-07-03T02:45:38.868Z,64.18
2018-07-03T02:48:08.185Z,64.12
2018-07-03T02:50:37.526Z,63.82
2018-07-03T02:53:07.031Z,64.07
2018-07-03T02:55:36.350Z,64.13
2018-07-03T02:58:05.648Z,64.18
2018-07-03T03:00:35.447Z,64.43
2018-07-03T03:03:04.751Z,65.07
2018-07-03T03:05:34.092Z,64.59
2018-07-03T03:08:03.551Z,64.11
2018-07-03T03:10:32.970Z,64.05
2018-07-03T03:13:02.472Z,63.92
2018-07-03T03:15:32.020Z,63.69
2018-07-03T03:18:01.427Z,63.70
2018-07-03T03:20:30.704Z,63.42
2018-07-03T03:23:00.457Z,64.05
2018-07-03T03:25:29.793Z,64.42
2018-07-03T03:27:59.152Z,65.05
2018-07-03T03:30:28.451Z,65.22
2018-07-03T03:32:57.785Z,64.42
2018-07-03T03:35:27.110Z,63.83
2018-07-03T03:37:56.402Z,63.50
2018-07-03T03:40:25.687Z,63.30
2018-07-03T03:42:55.104Z,63.84
2018-07-03T03:45:24.700Z,63.77
2018-07-03T03:47:54.049Z,63.45
2018-07-03T03:50:23.371Z,63.65
2018-07-03T03:52:52.670Z,63.83
2018-07-03T03:55:22.184Z,63.90
2018-07-03T03:57:51.911Z,63.74
2018-07-03T04:00:21.476Z,63.06
2018-07-03T04:02:50.955Z,62.88
2018-07-03T04:05:20.028Z,62.85
2018-07-03T04:07:49.742Z,62.66
2018-07-03T04:10:19.023Z,63.68
2018-07-03T04:12:48.263Z,64.53
2018-07-03T04:15:17.564Z,64.38
2018-07-03T04:17:46.884Z,64.39
2018-07-03T04:20:16.166Z,63.22
2018-07-03T04:22:45.479Z,62.39
2018-07-03T04:25:14.841Z,62.25
2018-07-03T04:27:44.129Z,61.55
2018-07-03T04:30:13.699Z,60.99
2018-07-03T04:32:42.980Z,61.30
2018-07-03T04:35:12.261Z,60.91
2018-07-03T04:37:41.558Z,61.21
2018-07-03T04:40:10.834Z,60.98
2018-07-03T04:42:40.171Z,59.52
2018-07-03T04:45:09.479Z,59.45
2018-07-03T04:47:38.732Z,58.91
2018-07-03T04:50:07.836Z,58.49
2018-07-03T04:52:37.373Z,58.22
2018-07-03T04:55:06.733Z,58.39
2018-07-03T04:57:36.063Z,58.41
2018-07-03T05:00:05.568Z,57.71
2018-07-03T05:02:34.896Z,56.62
2018-07-03T05:05:04.363Z,56.55
2018-07-03T05:07:33.685Z,55.17
2018-07-03T05:10:03.191Z,55.20
2018-07-03T05:12:32.903Z,56.23
2018-07-03T05:15:02.625Z,55.22
2018-07-03T05:17:32.026Z,55.79
2018-07-03T05:20:01.311Z,55.50
2018-07-03T05:22:30.736Z,55.30
2018-07-03T05:25:00.121Z,55.23
2018-07-03T05:27:29.399Z,55.09
2018-07-03T05:29:58.753Z,53.55
2018-07-03T05:32:27.829Z,53.40
2018-07-03T05:34:57.101Z,52.85
2018-07-03T05:37:26.606Z,52.42
2018-07-03T05:39:56.089Z,50.95
2018-07-03T05:42:25.404Z,50.25
2018-07-03T05:44:54.741Z,49.04
2018-07-03T05:47:24.041Z,48.91
2018-07-03T05:49:53.407Z,48.42
2018-07-03T05:52:24.162Z,47.35
2018-07-03T05:54:53.627Z,46.74
2018-07-03T05:57:23.026Z,45.96
2018-07-03T05:59:52.478Z,45.64
2018-07-03T06:02:21.869Z,45.17
2018-07-03T06:04:51.539Z,44.58
2018-07-03T06:07:21.008Z,44.14
2018-07-03T06:09:50.926Z,43.99
2018-07-03T06:12:20.205Z,43.34
2018-07-03T06:14:49.599Z,43.55
2018-07-03T06:17:18.964Z,43.37
2018-07-03T06:19:48.261Z,42.83
2018-07-03T06:22:17.677Z,42.34
2018-07-03T06:24:46.954Z,41.86
2018-07-03T06:27:16.431Z,42.11
2018-07-03T06:29:45.844Z,42.02
2018-07-03T06:32:15.172Z,41.05
2018-07-03T06:34:44.717Z,40.98
2018-07-03T06:37:13.903Z,41.35
2018-07-03T06:39:43.201Z,40.82
2018-07-03T06:42:12.573Z,41.37
2018-07-03T06:44:42.140Z,39.62
2018-07-03T06:47:11.452Z,40.17
2018-07-03T06:49:40.916Z,39.46
2018-07-03T06:52:10.315Z,39.70
2018-07-03T06:54:39.743Z,39.54
2018-07-03T06:57:09.048Z,40.36
2018-07-03T06:59:38.383Z,40.77
2018-07-03T07:02:07.790Z,39.93
2018-07-03T07:04:37.104Z,38.77
2018-07-03T07:07:07.217Z,40.13
2018-07-03T07:09:36.646Z,39.56
2018-07-03T07:12:06.004Z,38.56
2018-07-03T07:14:35.349Z,38.34
2018-07-03T07:17:05.468Z,37.71
2018-07-03T07:19:34.738Z,37.78
2018-07-03T07:22:04.100Z,38.53
2018-07-03T07:24:33.473Z,37.23
2018-07-03T07:27:02.846Z,36.49
2018-07-03T07:29:32.457Z,36.02
2018-07-03T07:32:02.068Z,36.74
2018-07-03T07:34:31.374Z,36.94
2018-07-03T07:37:00.447Z,36.39
2018-07-03T07:39:29.854Z,36.85
2018-07-03T07:41:59.183Z,35.43
2018-07-03T07:44:28.545Z,36.08
2018-07-03T07:46:57.861Z,36.56
2018-07-03T07:49:27.188Z,36.05
2018-07-03T07:51:56.823Z,36.40
2018-07-03T07:54:26.183Z,36.58
2018-07-03T07:56:55.516Z,37.00
2018-07-03T07:59:24.842Z,35.61
2018-07-03T08:01:54.404Z,35.64
2018-07-03T08:04:23.730Z,35.68
2018-07-03T08:06:53.067Z,35.20
2018-07-03T08:09:22.396Z,33.78
2018-07-03T08:11:51.785Z,33.38
2018-07-03T08:14:21.259Z,32.63
2018-07-03T08:16:50.724Z,32.82
2018-07-03T08:19:20.279Z,32.86
2018-07-03T08:21:49.693Z,33.42
2018-07-03T08:24:19.058Z,31.98
2018-07-03T08:26:48.710Z,31.33
2018-07-03T08:29:18.071Z,31.99
2018-07-03T08:31:47.365Z,32.19
2018-07-03T08:34:16.774Z,31.46
2018-07-03T08:36:46.439Z,31.03
2018-07-03T08:39:15.754Z,30.21
2018-07-03T08:41:45.200Z,31.00
2018-07-03T08:44:14.514Z,30.59
2018-07-03T08:46:43.820Z,30.10
2018-07-03T08:49:13.197Z,30.44
2018-07-03T08:51:42.609Z,31.07
2018-07-03T08:54:11.749Z,30.71
2018-07-03T08:56:41.063Z,30.45
2018-07-03T08:59:10.578Z,30.35
2018-07-03T09:01:40.050Z,29.00
2018-07-03T09:04:09.391Z,29.87
2018-07-03T09:06:39.324Z,28.78
2018-07-03T09:09:10.394Z,27.44
2018-07-03T09:11:40.397Z,28.38
2018-07-03T09:14:09.852Z,28.02
2018-07-03T09:16:39.569Z,26.93
2018-07-03T09:19:09.649Z,26.69
2018-07-03T09:21:38.982Z,26.16
2018-07-03T09:24:08.344Z,26.81
2018-07-03T09:26:37.711Z,26.43
2018-07-03T09:29:07.009Z,26.47
2018-07-03T09:31:36.310Z,26.58
2018-07-03T09:34:05.816Z,26.15
2018-07-03T09:36:35.240Z,26.70
2018-07-03T09:39:08.414Z,27.38
2018-07-03T09:41:38.638Z,25.52
2018-07-03T09:44:08.112Z,26.14
2018-07-03T09:46:37.455Z,25.89
2018-07-03T09:49:07.268Z,25.30
2018-07-03T09:51:36.621Z,25.00
2018-07-03T09:54:06.329Z,25.48
2018-07-03T09:56:35.658Z,24.69
2018-07-03T09:59:05.060Z,24.65
2018-07-03T10:01:34.623Z,25.90
2018-07-03T10:04:04.014Z,26.39
2018-07-03T10:06:33.314Z,26.00
2018-07-03T10:09:02.883Z,25.55
2018-07-03T10:11:32.210Z,26.01
2018-07-03T10:14:01.569Z,25.52
2018-07-03T10:16:30.931Z,24.77
2018-07-03T10:19:00.307Z,25.49
2018-07-03T10:21:29.733Z,25.33
2018-07-03T10:23:59.546Z,25.85
2018-07-03T10:26:28.871Z,24.88
2018-07-03T10:28:58.723Z,24.63
2018-07-03T10:31:28.135Z,23.98
2018-07-03T10:33:57.667Z,23.16
2018-07-03T10:36:27.172Z,23.35
2018-07-03T10:38:56.511Z,22.96
2018-07-03T10:41:25.898Z,23.93
2018-07-03T10:43:55.357Z,24.34
2018-07-03T10:46:24.840Z,23.79
2018-07-03T10:48:54.293Z,22.91
2018-07-03T10:51:23.628Z,23.41
2018-07-03T10:53:53.027Z,21.90
2018-07-03T10:56:22.958Z,22.98
2018-07-03T10:58:52.531Z,22.74
2018-07-03T11:01:21.921Z,22.70
2018-07-03T11:03:51.487Z,22.60
2018-07-03T11:06:20.804Z,23.57
2018-07-03T11:08:50.293Z,23.59
2018-07-03T11:11:19.634Z,22.86
2018-07-03T11:13:49.372Z,22.02
2018-07-03T11:16:18.817Z,21.57
2018-07-03T11:18:48.369Z,21.59
2018-07-03T11:21:17.817Z,21.77
2018-07-03T11:23:47.228Z,21.31
2018-07-03T11:26:16.619Z,21.54
2018-07-03T11:28:46.847Z,21.22
2018-07-03T11:31:16.525Z,23.42
2018-07-03T11:33:46.017Z,24.79
2018-07-03T11:36:15.099Z,24.25
2018-07-03T11:38:44.445Z,25.16
2018-07-03T11:41:13.981Z,23.41
2018-07-03T11:43:43.375Z,22.82
2018-07-03T11:46:12.928Z,23.73
2018-07-03T11:48:42.304Z,23.78
2018-07-03T11:51:11.808Z,23.37
2018-07-03T11:53:41.756Z,22.43
2018-07-03T11:56:11.223Z,22.13
2018-07-03T11:58:40.600Z,22.13
2018-07-03T12:01:09.992Z,22.69
2018-07-03T12:03:39.292Z,22.86
2018-07-03T12:06:08.677Z,21.97
2018-07-03T12:08:38.350Z,22.46
2018-07-03T12:11:07.962Z,21.45
2018-07-03T12:13:37.364Z,22.37
2018-07-03T12:16:07.163Z,22.42
2018-07-03T12:18:41.699Z,21.89
2018-07-03T12:21:11.215Z,22.09
2018-07-03T12:23:40.615Z,21.91
2018-07-03T12:26:09.977Z,21.51
2018-07-03T12:28:39.580Z,21.16
2018-07-03T12:31:09.020Z,20.80
2018-07-03T12:33:38.376Z,21.35
2018-07-03T12:36:09.459Z,21.42
2018-07-03T12:38:38.850Z,22.95
2018-07-03T12:41:08.436Z,24.05
2018-07-03T12:43:37.901Z,24.43
2018-07-03T12:46:07.647Z,24.66
2018-07-03T12:48:37.020Z,24.59
2018-07-03T12:51:06.451Z,25.02
2018-07-03T12:53:35.895Z,23.48
2018-07-03T12:56:05.381Z,24.57
2018-07-03T12:58:34.883Z,24.13
2018-07-03T13:01:04.299Z,24.87
2018-07-03T13:03:33.861Z,24.31
2018-07-03T13:06:03.167Z,23.06
2018-07-03T13:08:32.495Z,23.45
2018-07-03T13:11:01.836Z,21.70
2018-07-03T13:13:31.267Z,22.72
2018-07-03T13:16:00.584Z,20.98
2018-07-03T13:18:29.894Z,20.92
2018-07-03T13:20:59.506Z,22.35
2018-07-03T13:23:28.871Z,21.64
2018-07-03T13:25:58.272Z,22.38
2018-07-03T13:28:27.644Z,22.19
2018-07-03T13:30:57.206Z,22.36
2018-07-03T13:33:26.518Z,22.73
2018-07-03T13:35:55.856Z,21.70
2018-07-03T13:38:26.040Z,22.83
2018-07-03T13:40:55.389Z,23.11
2018-07-03T13:43:25.022Z,22.80
2018-07-03T13:45:54.312Z,23.10
2018-07-03T13:48:23.708Z,23.00
2018-07-03T13:50:52.949Z,23.34
2018-07-03T13:53:22.361Z,23.28
2018-07-03T13:55:51.723Z,24.49
2018-07-03T13:58:21.141Z,24.40
2018-07-03T14:00:50.496Z,24.34
2018-07-03T14:03:19.880Z,23.31
2018-07-03T14:05:49.847Z,23.65
2018-07-03T14:08:19.220Z,23.87
2018-07-03T14:10:48.589Z,24.44
2018-07-03T14:13:17.935Z,24.07
2018-07-03T14:15:47.307Z,24.88
2018-07-03T14:18:20.787Z,25.32
2018-07-03T14:20:50.118Z,25.42
2018-07-03T14:23:21.596Z,25.14
2018-07-03T14:25:51.014Z,25.31
2018-07-03T14:28:20.319Z,25.14
2018-07-03T14:30:49.663Z,23.95
2018-07-03T14:33:18.998Z,25.73
2018-07-03T14:35:48.338Z,25.31
2018-07-03T14:38:17.693Z,25.06
2018-07-03T14:40:47.090Z,25.83
2018-07-03T14:43:16.377Z,25.89
2018-07-03T14:45:46.010Z,24.90
2018-07-03T14:48:15.333Z,25.68
2018-07-03T14:50:44.761Z,24.96
2018-07-03T14:53:14.046Z,25.32
2018-07-03T14:55:43.316Z,25.12
2018-07-03T14:58:12.583Z,25.77
2018-07-03T15:00:41.959Z,24.43
2018-07-03T15:03:11.381Z,24.40
2018-07-03T15:05:40.706Z,24.33
2018-07-03T15:08:10.478Z,25.72
2018-07-03T15:10:39.863Z,24.84
2018-07-03T15:13:09.198Z,24.87
2018-07-03T15:15:38.526Z,25.51
2018-07-03T15:18:11.334Z,24.91
2018-07-03T15:20:40.807Z,25.31
2018-07-03T15:23:10.266Z,26.08
2018-07-03T15:25:39.636Z,25.28
2018-07-03T15:28:09.302Z,26.49
2018-07-03T15:30:38.939Z,26.35
2018-07-03T15:33:08.347Z,27.05
2018-07-03T15:35:37.764Z,26.08
2018-07-03T15:38:07.126Z,26.57
2018-07-03T15:40:36.495Z,27.25
2018-07-03T15:43:05.618Z,27.77
2018-07-03T15:45:34.997Z,27.67
2018-07-03T15:48:04.425Z,27.90
2018-07-03T15:50:34.001Z,27.80
2018-07-03T15:53:03.513Z,28.82
2018-07-03T15:55:33.073Z,28.16
2018-07-03T15:58:02.414Z,28.21
2018-07-03T16:00:31.773Z,29.51
2018-07-03T16:03:18.050Z,29.18
2018-07-03T16:06:08.968Z,30.30
2018-07-03T16:09:17.451Z,30.01
2018-07-03T16:11:46.839Z,30.42
2018-07-03T16:14:16.212Z,30.57
2018-07-03T16:16:45.536Z,31.01
2018-07-03T16:19:20.111Z,30.95
2018-07-03T16:21:49.494Z,31.71
2018-07-03T16:24:18.844Z,31.37
2018-07-03T16:26:48.405Z,31.83
2018-07-03T16:29:18.234Z,30.72
2018-07-03T16:31:47.888Z,31.22
2018-07-03T16:34:17.268Z,32.69
2018-07-03T16:36:46.716Z,33.36
2018-07-03T16:39:16.166Z,33.34
2018-07-03T16:41:45.590Z,33.13
2018-07-03T16:44:14.967Z,33.53
2018-07-03T16:46:44.498Z,33.78
2018-07-03T16:49:13.878Z,33.03
2018-07-03T16:51:43.651Z,33.46
2018-07-03T16:54:13.048Z,32.90
2018-07-03T16:56:42.552Z,32.68
2018-07-03T16:59:12.056Z,32.78
2018-07-03T17:01:41.390Z,33.57
2018-07-03T17:04:10.793Z,33.60
2018-07-03T17:06:39.964Z,33.03
2018-07-03T17:09:11.519Z,33.52
2018-07-03T17:11:41.224Z,33.75
2018-07-03T17:14:11.669Z,33.93
2018-07-03T17:16:42.034Z,33.80
2018-07-03T17:19:16.967Z,34.65
2018-07-03T17:21:46.357Z,34.14
2018-07-03T17:24:15.861Z,33.85
2018-07-03T17:26:45.521Z,34.31
2018-07-03T17:29:14.980Z,35.39
2018-07-03T17:31:44.354Z,35.48
2018-07-03T17:34:13.821Z,35.27
2018-07-03T17:36:43.249Z,35.05
2018-07-03T17:39:14.688Z,35.35
2018-07-03T17:42:00.912Z,34.60
2018-07-03T17:45:45.768Z,35.06
2018-07-03T17:48:16.108Z,34.97
2018-07-03T17:50:45.433Z,34.50
2018-07-03T17:53:14.800Z,34.46
2018-07-03T17:55:44.174Z,34.07
2018-07-03T17:58:13.522Z,34.36
2018-07-03T18:00:43.060Z,35.07
2018-07-03T18:03:12.523Z,35.09
2018-07-03T18:05:41.799Z,35.30
2018-07-03T18:08:11.675Z,34.45
2018-07-03T18:10:41.072Z,34.10
2018-07-03T18:13:10.398Z,34.81
2018-07-03T18:15:39.731Z,32.71
2018-07-03T18:18:09.096Z,32.98
2018-07-03T18:20:38.423Z,32.98
2018-07-03T18:23:07.836Z,33.48
2018-07-03T18:25:37.169Z,34.24
2018-07-03T18:31:17.074Z,34.56
2018-07-03T18:33:47.613Z,33.86
2018-07-03T18:36:16.790Z,33.81
2018-07-03T18:38:46.162Z,34.17
2018-07-03T18:41:15.504Z,35.29
2018-07-03T18:43:44.928Z,35.61
2018-07-03T18:46:14.072Z,36.01
2018-07-03T18:48:43.666Z,35.86
2018-07-03T18:51:13.479Z,37.27
2018-07-03T18:53:43.160Z,37.69
2018-07-03T18:56:12.718Z,37.56
2018-07-03T18:58:42.142Z,37.13
2018-07-03T19:01:11.606Z,37.47
2018-07-03T19:03:42.223Z,38.15
2018-07-03T19:06:12.278Z,38.10
2018-07-03T19:08:41.808Z,37.89
2018-07-03T19:11:11.496Z,38.54
2018-07-03T19:13:41.552Z,38.97
2018-07-03T19:16:11.367Z,38.68
2018-07-03T19:18:40.795Z,39.01
2018-07-03T19:21:10.387Z,38.78
2018-07-03T19:23:40.433Z,39.03
2018-07-03T19:26:11.147Z,38.12
2018-07-03T19:28:41.868Z,39.07
2018-07-03T19:31:11.939Z,39.44
2018-07-03T19:33:43.362Z,39.54
2018-07-03T19:36:12.998Z,39.46
2018-07-03T19:38:42.827Z,40.02
2018-07-03T19:41:12.217Z,39.43
2018-07-03T19:43:43.696Z,39.79
2018-07-03T19:46:15.444Z,40.46
2018-07-03T19:48:50.568Z,40.21
2018-07-03T19:51:20.656Z,39.48
2018-07-03T19:53:50.125Z,40.35
2018-07-03T19:56:19.462Z,40.60
2018-07-03T19:58:49.143Z,40.53
2018-07-03T20:01:18.568Z,40.56
2018-07-03T20:03:48.015Z,40.52
2018-07-03T20:06:17.495Z,40.86
2018-07-03T20:08:46.953Z,41.04
2018-07-03T20:11:16.434Z,40.85
2018-07-03T20:13:46.179Z,40.55
2018-07-03T20:16:15.760Z,40.89
2018-07-03T20:18:45.257Z,40.87
2018-07-03T20:21:14.766Z,42.18
2018-07-03T20:23:44.155Z,41.79
2018-07-03T20:26:14.553Z,42.53
2018-07-03T20:28:44.085Z,41.92
2018-07-03T20:31:13.862Z,42.48
2018-07-03T20:33:43.726Z,42.52
2018-07-03T20:36:13.246Z,42.67
2018-07-03T20:38:42.779Z,42.69
2018-07-03T20:41:12.179Z,43.02
2018-07-03T20:43:42.581Z,43.19
2018-07-03T20:46:12.115Z,43.82
2018-07-03T20:48:41.504Z,43.94
2018-07-03T20:51:11.014Z,43.93
2018-07-03T20:53:40.670Z,43.73
2018-07-03T20:56:10.409Z,44.43
2018-07-03T20:58:40.440Z,44.07
2018-07-03T21:01:09.776Z,44.88
2018-07-03T21:03:39.121Z,45.34
2018-07-03T21:06:08.645Z,46.03
2018-07-03T21:08:38.031Z,46.03
2018-07-03T21:11:07.819Z,46.43
2018-07-03T21:13:37.525Z,46.67
2018-07-03T21:16:06.854Z,47.25
2018-07-03T21:18:36.181Z,47.80
2018-07-03T21:21:06.052Z,47.18
2018-07-03T21:23:35.528Z,48.03
2018-07-03T21:26:05.470Z,47.91
2018-07-03T21:28:34.830Z,48.58
2018-07-03T21:31:04.370Z,49.54
2018-07-03T21:33:33.692Z,50.55
2018-07-03T21:36:03.068Z,50.93
2018-07-03T21:38:32.517Z,50.53
2018-07-03T21:41:01.861Z,50.19
2018-07-03T21:43:31.263Z,51.02
2018-07-03T21:46:00.641Z,52.28
2018-07-03T21:48:30.044Z,52.66
2018-07-03T21:50:59.649Z,52.57
2018-07-03T21:53:29.469Z,52.28
2018-07-03T21:55:58.813Z,53.35
2018-07-03T21:58:28.284Z,53.39
2018-07-03T22:00:57.781Z,53.32
2018-07-03T22:03:27.138Z,53.54
2018-07-03T22:05:57.021Z,53.96
2018-07-03T22:08:26.560Z,54.81
2018-07-03T22:10:56.184Z,54.93
2018-07-03T22:13:25.645Z,54.76
2018-07-03T22:15:54.999Z,55.57
2018-07-03T22:18:24.296Z,56.49
2018-07-03T22:20:53.741Z,56.66
2018-07-03T22:23:23.072Z,56.30
2018-07-03T22:25:52.463Z,56.58
2018-07-03T22:28:22.270Z,57.11
2018-07-03T22:30:51.825Z,57.07
2018-07-03T22:33:21.120Z,58.03
2018-07-03T22:35:50.460Z,58.09
2018-07-03T22:38:19.794Z,58.62
2018-07-03T22:40:49.094Z,58.89
2018-07-03T22:43:18.455Z,58.76
2018-07-03T22:45:47.709Z,59.21
2018-07-03T22:48:17.069Z,59.05
2018-07-03T22:50:46.717Z,60.38
2018-07-03T22:53:16.052Z,60.66
2018-07-03T22:55:45.414Z,59.89
2018-07-03T22:58:14.722Z,60.45
2018-07-03T23:00:44.027Z,60.84
2018-07-03T23:03:13.346Z,61.06
2018-07-03T23:05:42.648Z,61.41
2018-07-03T23:08:11.929Z,61.71
2018-07-03T23:10:41.265Z,61.53
2018-07-03T23:13:10.919Z,61.40
2018-07-03T23:15:40.306Z,61.97
2018-07-03T23:18:09.672Z,61.80
2018-07-03T23:20:38.978Z,62.33
2018-07-03T23:23:08.279Z,61.50
2018-07-03T23:25:37.612Z,61.92
2018-07-03T23:28:07.051Z,61.97
2018-07-03T23:30:36.350Z,61.94
2018-07-03T23:33:05.754Z,62.10
2018-07-03T23:35:35.200Z,62.52
2018-07-03T23:38:04.602Z,62.40
2018-07-03T23:40:34.006Z,62.36
2018-07-03T23:43:03.347Z,62.25
2018-07-03T23:45:45.878Z,62.43
2018-07-03T23:48:32.755Z,62.82
2018-07-03T23:51:20.363Z,63.62
2018-07-03T23:54:06.920Z,64.12
2018-07-03T23:56:53.190Z,64.18
2018-07-03T23:59:39.357Z,63.45
